Terminal Aerodrome Forecast
Issued by NWS

Home | Current Version | Previous Version | Text Only | Print | Product List | Glossary On
Versions: 1 2 3 4 5 6 7 8 9 10 11 12 13 14 15
000
FTUS45 KGJT 262340
TAFVEL
TAF
KVEL 262340Z 2700/2724 20005KT P6SM SCT080 BKN150
     FM270200 29004KT P6SM SCT090 BKN150
     FM271600 13004KT P6SM VCSH BKN045 OVC090
     FM272000 26008KT P6SM -SHRA BKN050=

USA.gov is the U.S. government's official web portal to all federal, state and local government web resources and services.